Ambler, AK

4:20 AM AKST on November 28, 2014 (GMT -0900)
Ambler | Change Station
CLOSE
Current Station
Airport
Location: Ambler,
Elevation: 289 ft
Nearby Weather Stations

Elev 289 ft 67.11 °N, 157.86 °W | Updated 4 minutes ago

Partly Cloudy
Partly Cloudy
10 °F
Feels Like 2 °F
N
5
Wind Variable Wind from East

Today
High -- | Low -- °F
--% Chance of Precip.
Yesterday
High -- | Low -- °F
Precip. -- in
11:29 AM 3:09 PM
Waxing Crescent, 40% visible
Pressure 30.17 in
Visibility 10.0 miles
Clouds Few 6000 ft
Windchill 2 °F
Dew Point 1 °F
Humidity 67%
Rainfall 0.00 in
Snow Depth Not available.
UV 0 out of 12
Pollen Not available.
Air Quality Not available.
Flu Activity Not available.
METAR PAFM 281316Z AUTO 09004KT 10SM FEW060 M12/M17 A3017 RMK AO1

More Conditions Fewer Conditions

Pressure 30.17 in
Visibility 10.0 miles
Clouds Few 6000 ft
Windchill 2 °F
Dew Point 1 °F
Humidity 67%
Rainfall 0.00 in
Snow Depth Not available.
UV 0 out of 12
Pollen Not available.
Air Quality Not available.
Flu Activity Not available.
METAR PAFM 281316Z AUTO 09004KT 10SM FEW060 M12/M17 A3017 RMK AO1

More Conditions Fewer Conditions

10-Day Weather Forecast

Almanac

Astronomy

Nov. 28, 2014 Rise Set
Actual Time
Civil Twilight
Nautical Twilight
Astronomical Twilight
Moon
Length of Visible Light
Length of Day
Tomorrow will be .
, % of the Moon is Illuminated

Today's Extremes

State Highs State Lows

Community

WunderPhotos

Upload Photos

1,774,204 photos uploaded!

WunderBlogs® & News

Nearby

Air Quality

  Air Quality AQ Index Pollutant
Not available.

Snow Depth

Station Depth Elevation

Earthquake Activity

City Distance Mag. Time & Date
Minimum magnitude displayed is 2.5.

Coastal Water Temperatures

Place Temperature

Nearby Weather Stations